Time;durP1;ratioP1;P1;durP2;ratioP2;P2;SDS_P1;SDS_P2;PMS_P1;PMS_P2;Temp;Humidity;BMP_temperature;BMP_pressure;BME280_temperature;BME280_humidity;BME280_pressure;Samples;Min_cycle;Max_cycle;Signal;HPM_P1;HPM_P2
2022/04/04 00:01:25;;;;;;;25.85;17.35;;;1.40;99.90;;;;;;5063102;28;20051;-68
2022/04/04 00:03:50;;;;;;;27.08;16.02;;;1.40;99.90;;;;;;5058518;28;20604;-67
2022/04/04 00:06:16;;;;;;;26.02;16.35;;;1.40;99.90;;;;;;5057898;28;20614;-68
2022/04/04 00:08:42;;;;;;;22.30;15.95;;;1.30;99.90;;;;;;5057943;28;20040;-68
2022/04/04 00:11:07;;;;;;;22.60;16.25;;;1.30;99.90;;;;;;5057500;28;20124;-68
2022/04/04 00:13:34;;;;;;;21.35;14.38;;;1.30;99.90;;;;;;5055601;28;20049;-67
2022/04/04 00:15:59;;;;;;;22.88;15.82;;;1.20;99.90;;;;;;5055422;28;20041;-67
2022/04/04 00:18:25;;;;;;;23.48;15.43;;;1.20;99.90;;;;;;5048900;28;20033;-68
2022/04/04 00:20:51;;;;;;;21.55;15.27;;;1.20;99.90;;;;;;5044957;28;20043;-68
2022/04/04 00:23:17;;;;;;;24.17;16.25;;;1.10;99.90;;;;;;5050158;28;20040;-68
2022/04/04 00:25:45;;;;;;;23.83;15.07;;;1.10;99.90;;;;;;5041034;28;20084;-68
2022/04/04 00:28:12;;;;;;;22.38;16.23;;;1.10;99.90;;;;;;5047062;28;20028;-68
2022/04/04 00:30:38;;;;;;;26.92;17.20;;;1.00;99.90;;;;;;5045257;28;20088;-68
2022/04/04 00:33:04;;;;;;;26.20;16.50;;;1.00;99.90;;;;;;5044449;28;20052;-68
2022/04/04 00:35:30;;;;;;;26.65;16.95;;;1.00;99.90;;;;;;5044558;28;20056;-68
2022/04/04 00:37:58;;;;;;;28.55;17.40;;;0.90;99.90;;;;;;5043405;28;20492;-68
2022/04/04 00:40:24;;;;;;;29.13;17.67;;;1.00;99.90;;;;;;5043721;28;20061;-67
2022/04/04 00:42:49;;;;;;;30.95;16.60;;;1.00;99.90;;;;;;5045302;28;20141;-68
2022/04/04 00:45:15;;;;;;;26.88;16.88;;;1.00;99.90;;;;;;5044962;28;20032;-68
2022/04/04 00:47:40;;;;;;;27.17;16.40;;;0.90;99.90;;;;;;5051550;28;20028;-68
2022/04/04 00:50:06;;;;;;;24.50;16.65;;;0.90;99.90;;;;;;5053479;28;20102;-68
2022/04/04 00:52:33;;;;;;;29.25;18.35;;;0.90;99.90;;;;;;5045136;28;20040;-68
2022/04/04 00:54:59;;;;;;;29.15;18.55;;;0.80;99.90;;;;;;5085439;28;20036;-68
2022/04/04 00:57:24;;;;;;;28.80;16.67;;;0.80;99.90;;;;;;5050486;28;20068;-68
2022/04/04 00:59:50;;;;;;;29.52;19.02;;;0.80;99.90;;;;;;5044642;28;20399;-67
2022/04/04 01:02:16;;;;;;;32.00;19.83;;;0.90;99.90;;;;;;5044538;28;20040;-67
2022/04/04 01:04:42;;;;;;;30.10;19.67;;;1.00;99.90;;;;;;5042348;28;20131;-69
2022/04/04 01:07:08;;;;;;;33.55;21.02;;;0.90;99.90;;;;;;5043677;28;20267;-68
2022/04/04 01:09:34;;;;;;;29.45;19.20;;;1.00;99.90;;;;;;5044230;28;20450;-67
2022/04/04 01:12:11;;;;;;;34.70;20.52;;;1.00;99.90;;;;;;5043916;28;20713;-68
2022/04/04 01:14:45;;;;;;;33.70;19.33;;;1.00;99.90;;;;;;5044717;28;20507;-68
2022/04/04 01:17:11;;;;;;;28.58;19.27;;;1.00;99.90;;;;;;5044186;28;20182;-68
2022/04/04 01:19:37;;;;;;;30.52;19.00;;;1.00;99.90;;;;;;5043059;28;20853;-68
2022/04/04 01:22:12;;;;;;;31.20;18.20;;;1.00;99.90;;;;;;5044603;28;20567;-69
2022/04/04 01:24:40;;;;;;;24.65;16.75;;;1.00;99.90;;;;;;5042629;28;20037;-68
2022/04/04 01:27:07;;;;;;;24.60;15.88;;;1.00;99.90;;;;;;5059856;28;20049;-68
2022/04/04 01:29:34;;;;;;;27.02;14.90;;;1.00;99.90;;;;;;5043660;28;20824;-67
2022/04/04 01:32:00;;;;;;;21.73;14.18;;;1.00;99.90;;;;;;5058550;28;20507;-68
2022/04/04 01:34:26;;;;;;;29.17;15.80;;;1.00;99.90;;;;;;5063431;28;20043;-68
2022/04/04 01:36:52;;;;;;;26.10;16.33;;;1.00;99.90;;;;;;5063749;28;20052;-68
2022/04/04 01:39:18;;;;;;;20.38;14.55;;;0.90;99.90;;;;;;5064411;28;20036;-69
2022/04/04 01:41:44;;;;;;;23.20;13.52;;;0.90;99.90;;;;;;5063972;28;20041;-69
2022/04/04 01:44:10;;;;;;;20.23;13.60;;;0.90;99.90;;;;;;5062969;28;20731;-68
2022/04/04 01:46:36;;;;;;;27.35;13.35;;;0.90;99.90;;;;;;5063344;28;20059;-68
2022/04/04 01:49:04;;;;;;;24.17;13.27;;;0.90;99.90;;;;;;5061316;28;20037;-68
2022/04/04 01:51:31;;;;;;;24.80;13.48;;;0.80;99.90;;;;;;5062089;28;20460;-68
2022/04/04 01:53:58;;;;;;;23.77;13.05;;;0.80;99.90;;;;;;5061450;28;20128;-69
2022/04/04 01:56:23;;;;;;;26.58;14.90;;;0.70;99.90;;;;;;5063430;28;20055;-68
2022/04/04 01:58:49;;;;;;;22.30;13.32;;;0.70;99.90;;;;;;5063491;28;20041;-68
2022/04/04 02:01:18;;;;;;;21.02;13.43;;;0.70;99.90;;;;;;5062819;28;20033;-68
2022/04/04 02:03:46;;;;;;;24.08;15.02;;;0.70;99.90;;;;;;5062540;28;20088;-69
2022/04/04 02:06:13;;;;;;;22.85;15.05;;;0.70;99.90;;;;;;5063503;28;20033;-68
2022/04/04 02:08:39;;;;;;;22.20;14.02;;;0.70;99.90;;;;;;5063502;28;20051;-68
2022/04/04 02:11:05;;;;;;;20.85;14.10;;;0.70;99.90;;;;;;5063124;28;20032;-69
2022/04/04 02:13:31;;;;;;;21.67;14.32;;;0.70;99.90;;;;;;5063048;28;20695;-67
2022/04/04 02:16:01;;;;;;;19.17;12.82;;;0.80;99.90;;;;;;5063433;28;20045;-68
2022/04/04 02:18:27;;;;;;;19.48;12.30;;;0.80;99.90;;;;;;5061687;28;20036;-68
2022/04/04 02:20:53;;;;;;;20.83;11.85;;;0.80;99.90;;;;;;5062815;28;20045;-68
2022/04/04 02:23:20;;;;;;;19.67;12.63;;;0.90;99.90;;;;;;5063094;28;20539;-68
2022/04/04 02:25:46;;;;;;;17.48;12.07;;;0.80;99.90;;;;;;5061733;28;20131;-68
2022/04/04 02:28:13;;;;;;;18.52;11.82;;;0.90;99.90;;;;;;5061787;28;20040;-68
2022/04/04 02:30:40;;;;;;;25.88;13.95;;;0.90;99.90;;;;;;5057348;28;20036;-68
2022/04/04 02:33:06;;;;;;;21.52;12.75;;;0.90;99.90;;;;;;5042007;28;20766;-68
2022/04/04 02:35:32;;;;;;;24.02;14.38;;;1.00;99.90;;;;;;5042826;28;20059;-68
2022/04/04 02:37:59;;;;;;;27.75;16.10;;;0.90;99.90;;;;;;5043268;28;20636;-68
2022/04/04 02:40:24;;;;;;;23.20;15.57;;;1.00;99.90;;;;;;5042676;28;20049;-68
2022/04/04 02:42:51;;;;;;;24.83;16.17;;;1.00;99.90;;;;;;5041480;28;20363;-68
2022/04/04 02:45:16;;;;;;;25.45;16.88;;;1.00;99.90;;;;;;5045180;28;20029;-68
2022/04/04 02:47:43;;;;;;;28.83;19.70;;;1.00;99.90;;;;;;5043117;28;20035;-68
2022/04/04 02:50:09;;;;;;;30.65;18.83;;;1.00;99.90;;;;;;5043147;28;20657;-68
2022/04/04 02:52:35;;;;;;;33.25;19.70;;;1.00;99.90;;;;;;5044011;28;20037;-68
2022/04/04 02:57:46;;;;;;;37.80;23.17;;;1.00;99.90;;;;;;5043402;28;20040;-68
2022/04/04 03:00:12;;;;;;;39.40;24.13;;;0.90;99.90;;;;;;5042652;28;20041;-68
2022/04/04 03:02:38;;;;;;;41.67;22.40;;;0.90;99.90;;;;;;5041621;28;20143;-68
2022/04/04 03:05:04;;;;;;;37.38;23.38;;;0.90;99.90;;;;;;5042481;28;20119;-69
2022/04/04 03:07:29;;;;;;;40.65;24.25;;;0.90;99.90;;;;;;5047448;28;20083;-69
2022/04/04 03:09:55;;;;;;;47.33;24.23;;;0.80;99.90;;;;;;5054506;28;20029;-69
2022/04/04 03:12:21;;;;;;;36.72;22.90;;;0.90;99.90;;;;;;5053349;28;20067;-68
2022/04/04 03:14:47;;;;;;;44.55;26.10;;;0.90;99.90;;;;;;5041692;28;20052;-68
2022/04/04 03:17:12;;;;;;;37.25;24.77;;;0.90;99.90;;;;;;5040487;28;20045;-68
2022/04/04 03:19:38;;;;;;;40.17;25.25;;;0.90;99.90;;;;;;5041598;28;20040;-68
2022/04/04 03:22:04;;;;;;;39.50;24.88;;;0.90;99.90;;;;;;5041810;28;20611;-68
2022/04/04 03:24:30;;;;;;;47.17;27.45;;;0.80;99.90;;;;;;5041912;28;20424;-68
2022/04/04 03:26:55;;;;;;;43.50;26.67;;;0.80;99.90;;;;;;5041524;28;20442;-68
2022/04/04 03:29:21;;;;;;;42.92;25.30;;;0.80;99.90;;;;;;5041964;28;21444;-68
2022/04/04 03:31:47;;;;;;;43.05;27.02;;;0.90;99.90;;;;;;5040037;28;20741;-68
2022/04/04 03:34:12;;;;;;;42.78;26.98;;;0.80;99.90;;;;;;5042189;28;20041;-68
2022/04/04 03:36:38;;;;;;;39.72;24.25;;;0.80;99.90;;;;;;5041939;28;20080;-68
2022/04/04 03:39:04;;;;;;;41.95;23.55;;;0.80;99.90;;;;;;5041906;28;20063;-68
2022/04/04 03:41:30;;;;;;;40.47;24.00;;;0.80;99.90;;;;;;5041014;28;20149;-68
2022/04/04 03:43:56;;;;;;;44.20;23.77;;;0.80;99.90;;;;;;5042324;28;20508;-68
2022/04/04 03:46:21;;;;;;;39.05;23.65;;;0.80;99.90;;;;;;5039869;28;20512;-68
2022/04/04 03:48:47;;;;;;;35.85;22.23;;;0.80;99.90;;;;;;5041693;28;20071;-68
2022/04/04 03:51:12;;;;;;;39.95;22.23;;;0.80;99.90;;;;;;5041341;28;20017;-68
2022/04/04 03:53:38;;;;;;;39.10;20.83;;;0.80;99.90;;;;;;5044201;28;20025;-68
2022/04/04 03:56:04;;;;;;;33.88;19.67;;;0.80;99.90;;;;;;5045770;28;20371;-69
2022/04/04 03:58:30;;;;;;;31.95;18.90;;;0.80;99.90;;;;;;5046456;28;20040;-70
2022/04/04 04:00:56;;;;;;;36.03;19.73;;;0.80;99.90;;;;;;5044749;28;20816;-67
2022/04/04 04:03:21;;;;;;;28.20;18.48;;;0.80;99.90;;;;;;5043765;28;20086;-68
2022/04/04 04:05:47;;;;;;;30.27;19.67;;;0.80;99.90;;;;;;5045659;28;20489;-68
2022/04/04 04:08:12;;;;;;;30.70;19.73;;;0.70;99.90;;;;;;5054813;28;20028;-67
2022/04/04 04:10:38;;;;;;;33.10;19.42;;;0.70;99.90;;;;;;5059713;28;20396;-68
2022/04/04 04:13:05;;;;;;;38.40;20.00;;;0.70;99.90;;;;;;5059449;28;20032;-69
2022/04/04 04:15:31;;;;;;;32.10;18.63;;;0.60;99.90;;;;;;5044246;28;20416;-69
2022/04/04 04:17:56;;;;;;;31.65;18.25;;;0.60;99.90;;;;;;5043479;28;20457;-69
2022/04/04 04:20:23;;;;;;;31.20;17.80;;;0.60;99.90;;;;;;5046228;28;20106;-69
2022/04/04 04:22:55;;;;;;;34.70;18.67;;;0.60;99.90;;;;;;5045874;28;20040;-69
2022/04/04 04:25:24;;;;;;;29.98;17.30;;;0.60;99.90;;;;;;5044985;28;20083;-69
2022/04/04 04:27:51;;;;;;;34.42;19.17;;;0.50;99.90;;;;;;5044759;28;20029;-69
2022/04/04 04:30:16;;;;;;;27.52;17.50;;;0.50;99.90;;;;;;5045515;28;20044;-70
2022/04/04 04:32:44;;;;;;;29.15;17.33;;;0.50;99.90;;;;;;5045073;28;20072;-68
2022/04/04 04:35:11;;;;;;;31.20;17.35;;;0.40;99.90;;;;;;5044127;28;20413;-68
2022/04/04 04:37:37;;;;;;;29.80;18.33;;;0.40;99.90;;;;;;5050684;28;20071;-68
2022/04/04 04:40:03;;;;;;;30.20;17.38;;;0.30;99.90;;;;;;5050802;28;20400;-68
2022/04/04 04:42:29;;;;;;;32.28;16.38;;;0.30;99.90;;;;;;5043085;28;20041;-67
2022/04/04 04:44:55;;;;;;;26.27;16.33;;;0.30;99.90;;;;;;5045308;28;20072;-68
2022/04/04 04:47:20;;;;;;;30.05;17.30;;;0.30;99.90;;;;;;5042851;28;20045;-68
2022/04/04 04:49:48;;;;;;;28.20;16.75;;;0.20;99.90;;;;;;5044666;28;20135;-69
2022/04/04 04:52:14;;;;;;;26.60;16.63;;;0.20;99.90;;;;;;5042847;28;20451;-68
2022/04/04 04:54:42;;;;;;;26.33;15.82;;;0.20;99.90;;;;;;5043563;28;20064;-69
2022/04/04 04:57:08;;;;;;;27.48;16.40;;;0.20;99.90;;;;;;5043935;28;20048;-68
2022/04/04 04:59:34;;;;;;;27.88;16.35;;;0.20;99.90;;;;;;5044695;28;20037;-68
2022/04/04 05:02:00;;;;;;;29.35;17.05;;;0.20;99.90;;;;;;5057220;28;20404;-68
2022/04/04 05:04:25;;;;;;;35.80;16.92;;;0.20;99.90;;;;;;5064253;28;20102;-68
2022/04/04 05:06:51;;;;;;;31.63;16.60;;;0.20;99.90;;;;;;5062833;28;20056;-69
2022/04/04 05:09:17;;;;;;;30.95;16.90;;;0.20;99.90;;;;;;5049434;28;21442;-68
2022/04/04 05:11:43;;;;;;;34.38;18.85;;;0.20;99.90;;;;;;5053243;28;20052;-68
2022/04/04 05:14:27;;;;;;;33.65;18.77;;;0.20;99.90;;;;;;5057220;28;20037;-68
2022/04/04 05:16:53;;;;;;;37.15;20.83;;;0.30;99.90;;;;;;5043153;28;20226;-68
2022/04/04 05:19:22;;;;;;;41.35;21.85;;;0.30;99.90;;;;;;5051007;28;20536;-68
2022/04/04 05:21:49;;;;;;;38.67;21.45;;;0.40;99.90;;;;;;5063661;28;20048;-68
2022/04/04 05:24:15;;;;;;;37.22;21.73;;;0.40;99.90;;;;;;5057389;28;20802;-68
2022/04/04 05:26:41;;;;;;;34.33;19.83;;;0.40;99.90;;;;;;5044554;28;20041;-68
2022/04/04 05:29:07;;;;;;;33.63;20.27;;;0.50;99.90;;;;;;5049084;28;20028;-68
2022/04/04 05:31:34;;;;;;;31.33;19.17;;;0.50;99.90;;;;;;5064006;28;20036;-68
2022/04/04 05:34:01;;;;;;;28.60;16.77;;;0.50;99.90;;;;;;5051286;28;20020;-68
2022/04/04 05:36:28;;;;;;;29.17;17.20;;;0.50;99.90;;;;;;5043034;28;20024;-68
2022/04/04 05:38:54;;;;;;;28.00;15.98;;;0.50;99.90;;;;;;5043315;28;20029;-69
2022/04/04 05:41:20;;;;;;;30.40;16.30;;;0.50;99.90;;;;;;5024001;28;20087;-69
2022/04/04 05:43:47;;;;;;;32.33;16.23;;;0.60;99.90;;;;;;5024196;28;20040;-68
2022/04/04 05:46:13;;;;;;;28.70;15.07;;;0.60;99.90;;;;;;5048393;28;20052;-69
2022/04/04 05:48:39;;;;;;;24.15;14.25;;;0.70;99.90;;;;;;5063561;28;20039;-69
2022/04/04 05:51:05;;;;;;;22.50;13.93;;;0.70;99.90;;;;;;5045734;28;20036;-69
2022/04/04 05:53:31;;;;;;;24.42;13.38;;;0.80;99.90;;;;;;5043682;28;20540;-69
2022/04/04 05:55:57;;;;;;;21.83;12.70;;;0.80;99.90;;;;;;5058066;28;20032;-69
2022/04/04 05:58:22;;;;;;;23.50;12.02;;;0.80;99.90;;;;;;5043837;28;20037;-69
2022/04/04 06:00:48;;;;;;;24.17;12.75;;;0.90;99.90;;;;;;5039742;28;20094;-68
2022/04/04 06:03:14;;;;;;;18.00;11.52;;;1.00;99.90;;;;;;5040766;28;20021;-69
2022/04/04 06:05:41;;;;;;;21.45;12.00;;;1.00;99.90;;;;;;5046049;28;20033;-69
2022/04/04 06:08:09;;;;;;;16.52;10.68;;;1.10;99.90;;;;;;5058862;28;20036;-69
2022/04/04 06:10:39;;;;;;;18.98;10.07;;;1.10;99.90;;;;;;5044130;28;20041;-68
2022/04/04 06:13:10;;;;;;;20.52;9.60;;;1.10;99.90;;;;;;5044034;28;20045;-69
2022/04/04 06:15:38;;;;;;;15.98;8.93;;;1.20;99.90;;;;;;5043374;28;20120;-68
2022/04/04 06:18:04;;;;;;;16.70;9.43;;;1.30;99.90;;;;;;5042747;28;20045;-68
2022/04/04 06:20:30;;;;;;;14.00;8.48;;;1.40;99.90;;;;;;5052700;28;20521;-68
2022/04/04 06:23:14;;;;;;;14.35;9.07;;;1.40;99.90;;;;;;5062952;28;20039;-67
2022/04/04 06:25:59;;;;;;;14.25;9.05;;;1.40;99.90;;;;;;5042829;28;20044;-68
2022/04/04 06:28:24;;;;;;;17.70;9.20;;;1.50;99.90;;;;;;5037429;28;20061;-68
2022/04/04 06:30:51;;;;;;;17.42;8.70;;;1.60;99.90;;;;;;5035777;28;20053;-69
2022/04/04 06:33:16;;;;;;;15.23;7.78;;;1.60;99.90;;;;;;5036734;28;20572;-68
2022/04/04 06:35:42;;;;;;;13.15;7.80;;;1.60;99.90;;;;;;5052103;28;20044;-69
2022/04/04 06:38:08;;;;;;;16.50;8.68;;;1.60;99.90;;;;;;5049007;28;20044;-67
2022/04/04 06:40:35;;;;;;;16.75;8.30;;;1.60;99.90;;;;;;5042949;28;20398;-69
2022/04/04 06:43:01;;;;;;;12.32;7.30;;;1.70;99.90;;;;;;5040410;28;20070;-69
2022/04/04 06:45:26;;;;;;;11.05;7.22;;;1.70;99.90;;;;;;5042407;28;20033;-69
2022/04/04 06:47:52;;;;;;;12.90;7.75;;;1.70;99.90;;;;;;5042281;28;20036;-69
2022/04/04 06:50:18;;;;;;;13.05;8.40;;;1.70;99.90;;;;;;5044434;28;20039;-69
2022/04/04 06:52:44;;;;;;;12.95;8.25;;;1.70;99.90;;;;;;5050055;28;20587;-68
2022/04/04 06:55:11;;;;;;;14.15;7.13;;;1.90;99.90;;;;;;5041560;28;20677;-68
2022/04/04 06:57:37;;;;;;;12.45;7.88;;;1.80;99.90;;;;;;5041884;28;20068;-70
2022/04/04 07:00:03;;;;;;;14.95;7.35;;;1.90;99.90;;;;;;5041686;28;20052;-69
2022/04/04 07:02:28;;;;;;;14.18;6.55;;;2.20;99.90;;;;;;5062347;28;20044;-67
2022/04/04 07:04:54;;;;;;;12.60;6.47;;;2.10;99.90;;;;;;5060712;28;20098;-69
2022/04/04 07:07:21;;;;;;;11.15;6.80;;;2.10;99.90;;;;;;5043734;28;20602;-67
2022/04/04 07:09:47;;;;;;;12.90;7.13;;;2.30;99.90;;;;;;5044425;28;20044;-66
2022/04/04 07:12:12;;;;;;;10.73;6.35;;;2.50;99.90;;;;;;5058176;28;20041;-68
2022/04/04 07:14:38;;;;;;;9.73;5.85;;;2.60;99.90;;;;;;5062077;28;20068;-65
2022/04/04 07:17:04;;;;;;;10.05;5.78;;;2.80;99.90;;;;;;5047495;28;20744;-68
2022/04/04 07:19:33;;;;;;;10.23;5.68;;;3.10;99.90;;;;;;5042343;28;20033;-67
2022/04/04 07:22:00;;;;;;;9.43;5.45;;;3.30;99.90;;;;;;5054381;28;20127;-68
2022/04/04 07:24:25;;;;;;;9.90;5.13;;;3.40;99.90;;;;;;5061752;28;20096;-68
2022/04/04 07:26:51;;;;;;;10.93;5.32;;;3.30;99.90;;;;;;5049347;28;20135;-68
2022/04/04 07:29:17;;;;;;;13.68;6.15;;;3.30;99.90;;;;;;5046205;28;20037;-69
2022/04/04 07:31:43;;;;;;;10.05;5.10;;;3.20;99.90;;;;;;5055585;28;20507;-71
2022/04/04 07:34:12;;;;;;;7.95;4.95;;;3.40;99.90;;;;;;5064508;28;20051;-70
2022/04/04 07:36:40;;;;;;;11.48;5.30;;;3.30;99.90;;;;;;5057206;28;20045;-71
2022/04/04 07:39:06;;;;;;;11.27;5.88;;;3.10;99.90;;;;;;5042693;28;20049;-72
2022/04/04 07:41:32;;;;;;;9.77;5.55;;;3.00;99.90;;;;;;5042253;28;20112;-71
2022/04/04 07:43:58;;;;;;;11.40;6.60;;;3.00;99.90;;;;;;5045889;28;20144;-69
2022/04/04 07:46:23;;;;;;;11.73;5.55;;;3.00;99.90;;;;;;5050542;28;20443;-72
2022/04/04 07:49:08;;;;;;;10.02;5.80;;;2.90;99.90;;;;;;5061075;28;20675;-70
2022/04/04 07:51:39;;;;;;;9.43;5.70;;;3.00;99.90;;;;;;5060304;28;20041;-70
2022/04/04 07:54:05;;;;;;;10.07;5.75;;;3.00;99.90;;;;;;5045806;28;20040;-69
2022/04/04 07:56:30;;;;;;;12.38;6.15;;;3.00;99.90;;;;;;5049702;28;20037;-69
2022/04/04 07:58:56;;;;;;;9.20;6.28;;;2.90;99.90;;;;;;5066145;28;20644;-70
2022/04/04 08:01:22;;;;;;;12.43;6.53;;;2.80;99.90;;;;;;5062605;28;20740;-69
2022/04/04 08:03:47;;;;;;;13.27;6.95;;;2.70;99.90;;;;;;5048016;28;20068;-69
2022/04/04 08:06:13;;;;;;;10.98;6.20;;;2.80;99.90;;;;;;5041202;28;20049;-70
2022/04/04 08:08:38;;;;;;;11.27;5.97;;;2.80;99.90;;;;;;5049579;28;20076;-68
2022/04/04 08:11:05;;;;;;;9.55;6.32;;;2.90;99.90;;;;;;5044838;28;20040;-70
2022/04/04 08:13:31;;;;;;;12.45;6.63;;;2.90;99.90;;;;;;5064482;28;20052;-71
2022/04/04 08:15:57;;;;;;;14.68;7.25;;;2.70;99.90;;;;;;5065956;28;20040;-69
2022/04/04 08:18:23;;;;;;;15.20;6.75;;;2.80;99.90;;;;;;5048290;28;20052;-70
2022/04/04 08:20:49;;;;;;;11.27;6.68;;;2.80;99.90;;;;;;5045306;28;20563;-70
2022/04/04 08:23:15;;;;;;;10.57;6.10;;;3.00;99.90;;;;;;5060618;28;20059;-70
2022/04/04 08:25:40;;;;;;;11.10;6.70;;;3.20;99.90;;;;;;5064774;28;20524;-70
2022/04/04 08:28:06;;;;;;;11.90;5.97;;;3.40;99.90;;;;;;5051286;28;20029;-70
2022/04/04 08:30:32;;;;;;;9.38;6.18;;;3.40;99.90;;;;;;5043505;28;20129;-71
2022/04/04 08:32:58;;;;;;;9.25;5.93;;;3.40;99.90;;;;;;5056056;28;20552;-73
2022/04/04 08:35:23;;;;;;;14.90;5.93;;;3.50;99.90;;;;;;5064328;28;20036;-72
2022/04/04 08:37:49;;;;;;;11.68;6.30;;;3.60;99.90;;;;;;5055346;28;20047;-68
2022/04/04 08:40:18;;;;;;;10.23;6.28;;;3.60;99.90;;;;;;5042204;28;20037;-69
2022/04/04 08:42:45;;;;;;;15.18;6.43;;;3.40;99.90;;;;;;5044754;28;20432;-69
2022/04/04 08:45:11;;;;;;;11.65;5.97;;;3.50;99.90;;;;;;5059988;28;20033;-69
2022/04/04 08:47:39;;;;;;;12.50;6.30;;;3.50;99.90;;;;;;5046673;28;20060;-69
2022/04/04 08:50:06;;;;;;;12.07;6.03;;;3.60;99.90;;;;;;5044569;28;20532;-69
2022/04/04 08:52:32;;;;;;;11.23;5.90;;;3.60;99.90;;;;;;5048635;28;20072;-69
2022/04/04 08:54:57;;;;;;;12.35;6.10;;;3.70;99.90;;;;;;5062940;28;20048;-69
2022/04/04 08:57:23;;;;;;;10.15;5.72;;;3.70;99.90;;;;;;5052226;28;20036;-70
2022/04/04 08:59:49;;;;;;;12.57;6.03;;;3.90;99.90;;;;;;5064830;28;20044;-68
2022/04/04 09:02:15;;;;;;;9.68;5.68;;;4.10;99.90;;;;;;5062836;28;20040;-70
2022/04/04 09:04:41;;;;;;;11.95;6.60;;;4.20;99.90;;;;;;5043757;28;20522;-70
2022/04/04 09:07:09;;;;;;;9.10;6.18;;;4.10;99.90;;;;;;5043754;28;20065;-70
2022/04/04 09:09:39;;;;;;;8.90;6.10;;;4.10;99.90;;;;;;5039276;28;20043;-70
2022/04/04 09:12:10;;;;;;;12.05;6.20;;;4.10;99.90;;;;;;5042460;28;20628;-70
2022/04/04 09:14:48;;;;;;;12.88;6.68;;;4.20;99.90;;;;;;5064053;28;20033;-69
2022/04/04 09:17:16;;;;;;;11.82;6.03;;;4.30;99.90;;;;;;5054783;28;20037;-69
2022/04/04 09:19:42;;;;;;;11.48;6.22;;;4.30;99.90;;;;;;5049130;28;20048;-70
2022/04/04 09:22:18;;;;;;;9.45;5.65;;;4.30;99.90;;;;;;5043428;28;20033;-69
2022/04/04 09:24:43;;;;;;;10.43;6.53;;;4.30;99.90;;;;;;5043829;28;20386;-70
2022/04/04 09:27:30;;;;;;;11.07;6.03;;;4.30;99.90;;;;;;5043950;28;20667;-69
2022/04/04 09:30:07;;;;;;;14.02;6.55;;;4.30;99.90;;;;;;5042048;28;20779;-70
2022/04/04 09:32:38;;;;;;;9.60;5.47;;;4.30;99.90;;;;;;5042672;28;20037;-70
2022/04/04 09:35:20;;;;;;;9.75;5.88;;;4.40;99.90;;;;;;5022763;28;20050;-70
2022/04/04 09:37:48;;;;;;;8.95;5.32;;;4.50;99.90;;;;;;5033974;28;20044;-68
2022/04/04 09:40:21;;;;;;;9.27;5.45;;;4.60;99.90;;;;;;5045323;28;20041;-67
2022/04/04 09:42:52;;;;;;;8.57;5.53;;;4.80;99.90;;;;;;5045357;28;20044;-67
2022/04/04 09:45:20;;;;;;;10.65;5.13;;;4.80;99.90;;;;;;5065589;28;20040;-69
2022/04/04 09:47:52;;;;;;;8.75;5.50;;;4.70;99.70;;;;;;5052525;28;20066;-69
2022/04/04 09:50:45;;;;;;;10.23;5.25;;;4.60;99.90;;;;;;5043710;28;20033;-69
2022/04/04 09:53:16;;;;;;;8.50;5.15;;;4.50;99.90;;;;;;5033469;28;20604;-69
2022/04/04 09:56:00;;;;;;;9.65;5.35;;;4.60;99.90;;;;;;5046222;28;20044;-68
2022/04/04 09:58:38;;;;;;;10.63;5.40;;;4.60;99.90;;;;;;5048075;28;20047;-69
2022/04/04 10:01:05;;;;;;;9.70;6.32;;;4.60;99.80;;;;;;5062124;28;20052;-69
2022/04/04 10:03:31;;;;;;;11.38;6.10;;;4.60;99.90;;;;;;5059527;28;20128;-68
2022/04/04 10:06:04;;;;;;;14.07;6.43;;;4.70;99.90;;;;;;5043415;28;20041;-70
2022/04/04 10:08:31;;;;;;;9.32;5.20;;;4.70;99.90;;;;;;5042410;28;20064;-70
2022/04/04 10:10:57;;;;;;;9.23;5.70;;;4.80;99.90;;;;;;5043080;28;20760;-70
2022/04/04 10:13:24;;;;;;;9.13;5.65;;;4.70;99.90;;;;;;5039819;28;20040;-69
2022/04/04 10:15:51;;;;;;;12.07;6.30;;;4.60;99.90;;;;;;5043295;28;20087;-72
2022/04/04 10:18:19;;;;;;;11.57;6.63;;;4.60;99.90;;;;;;5043549;28;20029;-70
2022/04/04 10:20:52;;;;;;;12.95;5.90;;;4.70;99.90;;;;;;5022584;28;20029;-67
2022/04/04 10:23:20;;;;;;;10.13;6.35;;;4.70;99.90;;;;;;5040471;28;20040;-72
2022/04/04 10:26:07;;;;;;;13.90;5.53;;;4.60;99.90;;;;;;5040130;28;20044;-69
2022/04/04 10:28:48;;;;;;;13.65;6.75;;;4.50;99.90;;;;;;5038498;28;20417;-70
2022/04/04 10:31:19;;;;;;;11.25;6.75;;;4.50;99.90;;;;;;5041607;28;20033;-70
2022/04/04 10:33:47;;;;;;;10.77;6.80;;;4.50;99.90;;;;;;5043961;28;20056;-71
2022/04/04 10:36:24;;;;;;;9.55;6.50;;;4.60;99.90;;;;;;5043037;28;20049;-70
2022/04/04 10:38:51;;;;;;;10.43;6.28;;;4.60;99.90;;;;;;5043736;28;20045;-70
2022/04/04 10:41:19;;;;;;;11.30;6.38;;;4.60;99.90;;;;;;5042663;28;20033;-70
2022/04/04 10:43:48;;;;;;;9.35;5.72;;;4.80;99.90;;;;;;5042042;28;20565;-73
2022/04/04 10:46:29;;;;;;;12.60;5.93;;;4.80;99.90;;;;;;5032677;28;20053;-70
2022/04/04 10:48:59;;;;;;;11.05;6.57;;;4.70;99.90;;;;;;5039764;28;20044;-70
2022/04/04 10:51:31;;;;;;;8.90;5.50;;;4.80;99.90;;;;;;5041768;28;20105;-70
2022/04/04 10:54:07;;;;;;;7.70;5.82;;;4.90;99.90;;;;;;5041940;28;20041;-71
2022/04/04 10:56:46;;;;;;;9.82;5.40;;;4.90;99.90;;;;;;5054691;28;20064;-69
2022/04/04 10:59:15;;;;;;;9.35;5.07;;;5.10;99.90;;;;;;5044113;28;20279;-71
2022/04/04 11:01:51;;;;;;;10.27;5.78;;;4.90;99.90;;;;;;5050541;28;20071;-71
2022/04/04 11:04:36;;;;;;;12.80;6.97;;;4.70;99.90;;;;;;5046822;28;20045;-71
2022/04/04 11:10:06;;;;;;;9.98;6.25;;;4.40;99.90;;;;;;5048941;28;20722;-69
2022/04/04 11:13:03;;;;;;;9.77;6.05;;;4.20;99.90;;;;;;5061626;28;20075;-70
2022/04/04 11:15:48;;;;;;;12.45;6.32;;;4.10;99.90;;;;;;5060618;28;20085;-69
2022/04/04 11:18:14;;;;;;;11.73;6.60;;;4.30;99.90;;;;;;5061878;28;20086;-69
2022/04/04 11:21:00;;;;;;;8.80;6.32;;;4.50;99.90;;;;;;5051000;28;20052;-70
2022/04/04 11:23:34;;;;;;;7.95;5.90;;;4.70;99.90;;;;;;5041950;28;20203;-68
2022/04/04 11:26:01;;;;;;;8.05;5.88;;;4.80;99.90;;;;;;5054823;28;20085;-69
2022/04/04 11:28:31;;;;;;;11.00;5.85;;;4.80;99.90;;;;;;5060510;28;20037;-68
2022/04/04 11:31:11;;;;;;;8.40;6.10;;;4.80;99.90;;;;;;5043934;28;20033;-67
2022/04/04 11:33:51;;;;;;;8.88;5.95;;;5.10;99.90;;;;;;5035867;28;20578;-69
2022/04/04 11:36:27;;;;;;;10.40;5.72;;;5.20;99.90;;;;;;5042103;28;20029;-70
2022/04/04 11:38:57;;;;;;;9.48;5.45;;;5.00;99.90;;;;;;5043296;28;20033;-67
2022/04/04 11:41:24;;;;;;;9.35;6.43;;;5.00;99.90;;;;;;5041319;28;20060;-68
2022/04/04 11:43:52;;;;;;;9.65;6.05;;;5.00;99.90;;;;;;5042410;28;20041;-67
2022/04/04 11:46:19;;;;;;;9.40;5.95;;;5.10;99.90;;;;;;5054887;28;20112;-67
2022/04/04 11:48:54;;;;;;;9.82;5.93;;;4.90;99.90;;;;;;5061888;28;20041;-69
2022/04/04 11:51:25;;;;;;;10.15;5.57;;;4.90;99.90;;;;;;5056670;28;20080;-67
2022/04/04 11:54:04;;;;;;;6.80;4.80;;;5.10;99.90;;;;;;5041396;28;20040;-67
2022/04/04 11:56:31;;;;;;;8.90;5.57;;;5.10;99.90;;;;;;5051556;28;20633;-67
2022/04/04 11:58:57;;;;;;;9.18;4.88;;;5.20;99.90;;;;;;5061179;28;20040;-68
2022/04/04 12:01:33;;;;;;;9.20;5.00;;;5.10;99.90;;;;;;5047865;28;20045;-68
2022/04/04 12:04:00;;;;;;;8.68;5.35;;;4.90;99.90;;;;;;5041653;28;20107;-68
2022/04/04 12:06:29;;;;;;;14.10;5.43;;;4.80;99.90;;;;;;5032948;28;20785;-68
2022/04/04 12:09:03;;;;;;;11.35;5.50;;;4.70;99.90;;;;;;5041713;28;20120;-69
2022/04/04 12:11:29;;;;;;;9.30;5.68;;;4.40;99.90;;;;;;5043095;28;20047;-68
2022/04/04 12:13:57;;;;;;;10.35;5.78;;;4.20;99.90;;;;;;5043334;28;20572;-68
2022/04/04 12:16:24;;;;;;;15.43;6.30;;;4.10;99.90;;;;;;5045376;28;20132;-69
2022/04/04 12:19:09;;;;;;;9.75;6.45;;;3.90;99.90;;;;;;5044938;28;20051;-68
2022/04/04 12:21:43;;;;;;;17.15;7.05;;;3.80;99.90;;;;;;5040217;28;20048;-69
2022/04/04 12:27:09;;;;;;;12.70;6.85;;;3.30;99.90;;;;;;5044770;28;20428;-69
2022/04/04 12:29:45;;;;;;;11.60;7.38;;;3.10;99.90;;;;;;5045190;28;20053;-67
2022/04/04 12:32:37;;;;;;;8.88;6.65;;;3.20;99.90;;;;;;5051767;28;20408;-68
2022/04/04 12:35:07;;;;;;;9.93;6.22;;;3.20;99.90;;;;;;5032314;28;20056;-69
2022/04/04 12:37:41;;;;;;;11.27;6.28;;;3.40;99.90;;;;;;5043244;28;20049;-69
2022/04/04 12:40:22;;;;;;;9.07;5.88;;;3.60;99.90;;;;;;5044663;28;20175;-67
2022/04/04 12:42:49;;;;;;;12.43;6.93;;;3.70;99.90;;;;;;5062854;28;20040;-70
2022/04/04 12:45:20;;;;;;;7.95;5.85;;;3.60;99.90;;;;;;5064368;28;20657;-70
2022/04/04 12:47:57;;;;;;;7.57;5.32;;;3.60;99.90;;;;;;5048121;28;20069;-70
2022/04/04 12:50:24;;;;;;;9.27;5.70;;;3.70;99.90;;;;;;5040190;28;20811;-70
2022/04/04 12:53:01;;;;;;;10.70;5.95;;;3.60;99.90;;;;;;5044417;28;20045;-70
2022/04/04 12:55:27;;;;;;;8.45;5.60;;;3.60;99.90;;;;;;5044506;28;20059;-70
2022/04/04 12:57:54;;;;;;;11.02;6.05;;;3.60;99.90;;;;;;5061206;28;20037;-69